createdAt,value
2023-01-30T00:01:33.737Z,6.05
2023-01-30T00:04:00.414Z,5.13
2023-01-30T00:06:27.403Z,5.78
2023-01-30T00:08:54.271Z,5.35
2023-01-30T00:11:21.581Z,5.68
2023-01-30T00:13:49.972Z,5.57
2023-01-30T00:16:17.229Z,6.95
2023-01-30T00:18:44.832Z,5.68
2023-01-30T00:21:13.828Z,6.32
2023-01-30T00:23:43.889Z,6.43
2023-01-30T00:26:15.986Z,6.68
2023-01-30T00:28:42.740Z,7.05
2023-01-30T00:31:09.600Z,6.47
2023-01-30T00:33:40.258Z,6.80
2023-01-30T00:36:07.515Z,7.47
2023-01-30T00:38:34.395Z,6.90
2023-01-30T00:41:01.153Z,7.30
2023-01-30T00:43:46.436Z,6.75
2023-01-30T00:46:37.597Z,6.85
2023-01-30T00:49:04.294Z,6.53
2023-01-30T00:51:31.112Z,7.28
2023-01-30T00:53:57.895Z,7.85
2023-01-30T00:56:24.812Z,7.10
2023-01-30T00:58:51.569Z,7.03
2023-01-30T01:01:21.092Z,7.53
2023-01-30T01:03:48.026Z,7.55
2023-01-30T01:06:14.683Z,6.72
2023-01-30T01:08:41.374Z,6.80
2023-01-30T01:11:08.221Z,6.80
2023-01-30T01:13:34.939Z,6.93
2023-01-30T01:16:01.861Z,7.43
2023-01-30T01:18:31.003Z,7.57
2023-01-30T01:20:57.740Z,8.20
2023-01-30T01:23:31.544Z,7.63
2023-01-30T01:26:01.997Z,7.15
2023-01-30T01:28:28.651Z,7.60
2023-01-30T01:30:55.385Z,7.18
2023-01-30T01:33:29.126Z,8.93
2023-01-30T01:35:59.241Z,7.82
2023-01-30T01:38:26.090Z,8.02
2023-01-30T01:41:10.541Z,7.63
2023-01-30T01:43:57.309Z,7.40
2023-01-30T01:46:27.040Z,7.00
2023-01-30T01:48:56.334Z,8.02
2023-01-30T01:51:30.536Z,7.88
2023-01-30T01:54:19.842Z,7.65
2023-01-30T01:56:48.561Z,8.10
2023-01-30T01:59:32.789Z,7.30
2023-01-30T02:02:01.890Z,8.10
2023-01-30T02:04:48.378Z,9.00
2023-01-30T02:07:17.431Z,8.20
2023-01-30T02:09:47.048Z,7.40
2023-01-30T02:12:17.692Z,9.23
2023-01-30T02:14:44.859Z,8.38
2023-01-30T02:17:11.848Z,9.00
2023-01-30T02:19:55.885Z,9.23
2023-01-30T02:22:37.349Z,8.90
2023-01-30T02:25:40.005Z,9.43
2023-01-30T02:28:39.020Z,8.60
2023-01-30T02:31:28.058Z,8.57
2023-01-30T02:34:16.484Z,8.90
2023-01-30T02:37:11.996Z,8.57
2023-01-30T02:40:11.101Z,9.05
2023-01-30T02:42:48.818Z,8.98
2023-01-30T02:45:34.761Z,9.13
2023-01-30T02:48:13.823Z,8.95
2023-01-30T02:50:47.244Z,9.52
2023-01-30T02:53:14.244Z,9.10
2023-01-30T02:55:42.862Z,9.35
2023-01-30T02:58:12.800Z,9.35
2023-01-30T03:01:24.552Z,8.75
2023-01-30T03:04:03.471Z,9.18
2023-01-30T03:06:47.337Z,9.80
2023-01-30T03:09:22.907Z,9.77
2023-01-30T03:12:14.518Z,8.80
2023-01-30T03:14:51.875Z,8.98
2023-01-30T03:17:21.345Z,9.75
2023-01-30T03:19:49.511Z,9.15
2023-01-30T03:22:16.128Z,9.07
2023-01-30T03:24:43.336Z,8.95
2023-01-30T03:27:14.795Z,7.68
2023-01-30T03:29:41.642Z,8.70
2023-01-30T03:32:08.577Z,8.35
2023-01-30T03:34:38.176Z,8.35
2023-01-30T03:37:05.332Z,9.18
2023-01-30T03:39:35.174Z,9.52
2023-01-30T03:42:02.013Z,8.85
2023-01-30T03:44:28.991Z,8.30
2023-01-30T03:46:55.703Z,9.40
2023-01-30T03:49:22.501Z,8.57
2023-01-30T03:51:49.361Z,7.82
2023-01-30T03:54:16.093Z,8.40
2023-01-30T03:56:43.236Z,8.25
2023-01-30T03:59:10.084Z,7.95
2023-01-30T04:01:37.115Z,8.57
2023-01-30T04:04:03.835Z,7.93
2023-01-30T04:06:30.808Z,8.27
2023-01-30T04:08:57.550Z,8.63
2023-01-30T04:11:24.314Z,9.20
2023-01-30T04:13:51.006Z,8.77
2023-01-30T04:16:23.175Z,9.20
2023-01-30T04:18:50.230Z,9.10
2023-01-30T04:21:17.263Z,8.82
2023-01-30T04:23:46.368Z,8.43
2023-01-30T04:26:14.138Z,8.43
2023-01-30T04:28:41.240Z,8.45
2023-01-30T04:31:08.378Z,8.40
2023-01-30T04:33:40.317Z,8.52
2023-01-30T04:36:10.558Z,8.88
2023-01-30T04:38:37.925Z,8.52
2023-01-30T04:41:05.494Z,9.13
2023-01-30T04:43:32.531Z,7.82
2023-01-30T04:45:59.282Z,8.73
2023-01-30T04:48:28.857Z,9.10
2023-01-30T04:50:58.916Z,9.20
2023-01-30T04:53:26.141Z,8.27
2023-01-30T04:55:55.945Z,9.23
2023-01-30T04:58:22.833Z,8.45
2023-01-30T05:00:49.802Z,9.27
2023-01-30T05:03:16.940Z,8.80
2023-01-30T05:05:46.914Z,9.07
2023-01-30T05:08:16.875Z,9.07
2023-01-30T05:10:43.753Z,9.13
2023-01-30T05:13:10.534Z,8.88
2023-01-30T05:15:39.537Z,10.00
2023-01-30T05:18:06.228Z,9.65
2023-01-30T05:20:33.160Z,10.10
2023-01-30T05:22:59.872Z,9.43
2023-01-30T05:25:26.599Z,9.32
2023-01-30T05:27:57.289Z,9.95
2023-01-30T05:30:24.308Z,10.05
2023-01-30T05:32:51.110Z,10.15
2023-01-30T05:35:18.147Z,9.50
2023-01-30T05:37:45.337Z,10.73
2023-01-30T05:40:14.912Z,9.45
2023-01-30T05:42:41.881Z,9.82
2023-01-30T05:45:12.180Z,10.25
2023-01-30T05:47:41.964Z,9.07
2023-01-30T05:50:11.956Z,10.10
2023-01-30T05:52:38.861Z,10.13
2023-01-30T05:55:08.777Z,9.65
2023-01-30T05:57:35.704Z,9.02
2023-01-30T06:00:02.627Z,9.48
2023-01-30T06:02:31.468Z,9.50
2023-01-30T06:04:58.359Z,9.50
2023-01-30T06:07:25.143Z,9.52
2023-01-30T06:09:51.923Z,10.10
2023-01-30T06:12:18.823Z,8.30
2023-01-30T06:14:45.610Z,10.02
2023-01-30T06:17:12.235Z,8.98
2023-01-30T06:19:39.225Z,10.20
2023-01-30T06:22:08.824Z,9.43
2023-01-30T06:24:38.182Z,8.73
2023-01-30T06:27:05.144Z,9.52
2023-01-30T06:29:33.666Z,8.73
2023-01-30T06:32:00.706Z,8.73
2023-01-30T06:34:29.738Z,9.40
2023-01-30T06:36:56.620Z,8.57
2023-01-30T06:39:26.184Z,8.30
2023-01-30T06:41:52.873Z,8.82
2023-01-30T06:44:19.883Z,8.57
2023-01-30T06:46:52.645Z,8.73
2023-01-30T06:49:22.585Z,8.02
2023-01-30T06:51:49.401Z,8.18
2023-01-30T06:54:21.011Z,7.43
2023-01-30T06:56:49.765Z,7.88
2023-01-30T06:59:16.727Z,7.40
2023-01-30T07:01:43.645Z,6.63
2023-01-30T07:04:10.730Z,6.93
2023-01-30T07:06:40.100Z,6.93
2023-01-30T07:09:07.025Z,6.93
2023-01-30T07:11:37.082Z,6.15
2023-01-30T07:14:07.238Z,6.30
2023-01-30T07:16:34.075Z,6.32
2023-01-30T07:19:00.823Z,5.90
2023-01-30T07:21:28.056Z,5.18
2023-01-30T07:23:54.899Z,5.45
2023-01-30T07:26:22.256Z,6.15
2023-01-30T07:28:49.011Z,5.45
2023-01-30T07:31:15.795Z,5.10
2023-01-30T07:33:42.608Z,4.88
2023-01-30T07:36:09.819Z,5.45
2023-01-30T07:38:36.664Z,4.95
2023-01-30T07:41:03.604Z,4.97
2023-01-30T07:43:30.626Z,4.82
2023-01-30T07:45:57.656Z,4.80
2023-01-30T07:48:24.384Z,4.60
2023-01-30T07:50:51.133Z,4.53
2023-01-30T07:53:19.077Z,4.90
2023-01-30T07:55:46.031Z,4.47
2023-01-30T07:58:16.374Z,4.72
2023-01-30T08:00:44.114Z,3.95
2023-01-30T08:03:15.963Z,4.45
2023-01-30T08:05:42.813Z,4.30
2023-01-30T08:08:12.875Z,4.05
2023-01-30T08:10:39.610Z,4.13
2023-01-30T08:13:06.447Z,4.22
2023-01-30T08:15:33.742Z,4.82
2023-01-30T08:18:00.900Z,4.07
2023-01-30T08:20:28.312Z,3.95
2023-01-30T08:22:55.263Z,3.58
2023-01-30T08:25:23.221Z,4.07
2023-01-30T08:27:50.721Z,4.05
2023-01-30T08:30:21.823Z,3.58
2023-01-30T08:32:49.038Z,3.67
2023-01-30T08:35:24.774Z,3.28
2023-01-30T08:37:54.631Z,3.08
2023-01-30T08:40:21.527Z,3.83
2023-01-30T08:42:48.334Z,2.90
2023-01-30T08:45:18.336Z,3.35
2023-01-30T08:47:45.273Z,3.25
2023-01-30T08:50:12.431Z,3.15
2023-01-30T08:52:39.518Z,3.03
2023-01-30T08:55:06.607Z,2.92
2023-01-30T08:57:33.692Z,3.47
2023-01-30T09:00:02.325Z,2.85
2023-01-30T09:02:29.076Z,2.80
2023-01-30T09:04:55.810Z,2.60
2023-01-30T09:07:22.647Z,2.90
2023-01-30T09:09:49.353Z,2.70
2023-01-30T09:12:16.065Z,2.40
2023-01-30T09:14:46.753Z,2.47
2023-01-30T09:17:15.667Z,2.22
2023-01-30T09:19:43.236Z,2.17
2023-01-30T09:22:12.508Z,2.00
2023-01-30T09:24:39.391Z,1.98
2023-01-30T09:27:06.049Z,1.77
2023-01-30T09:29:32.748Z,1.80
2023-01-30T09:31:59.598Z,1.60
2023-01-30T09:34:30.677Z,1.55
2023-01-30T09:37:04.387Z,1.52
2023-01-30T09:39:31.396Z,1.73
2023-01-30T09:42:25.719Z,1.75
2023-01-30T09:45:13.386Z,1.77
2023-01-30T09:47:45.433Z,1.27
2023-01-30T09:50:36.957Z,1.42
2023-01-30T09:53:14.140Z,1.25
2023-01-30T09:55:44.463Z,1.25
2023-01-30T09:58:17.850Z,1.55
2023-01-30T10:00:44.612Z,1.13
2023-01-30T10:03:18.670Z,1.50
2023-01-30T10:06:07.459Z,1.30
2023-01-30T10:09:11.121Z,1.05
2023-01-30T10:11:50.144Z,2.50
2023-01-30T10:14:22.448Z,1.42
2023-01-30T10:17:17.052Z,1.80
2023-01-30T10:20:02.190Z,1.20
2023-01-30T10:22:41.165Z,2.05
2023-01-30T10:25:30.845Z,1.33
2023-01-30T10:28:06.948Z,1.60
2023-01-30T10:30:34.963Z,1.63
2023-01-30T10:33:05.913Z,2.03
2023-01-30T10:35:36.440Z,1.30
2023-01-30T10:38:30.637Z,1.70
2023-01-30T10:41:02.681Z,1.83
2023-01-30T10:43:33.309Z,2.30
2023-01-30T10:46:15.199Z,1.50
2023-01-30T10:49:06.703Z,2.58
2023-01-30T10:51:50.491Z,1.73
2023-01-30T10:54:23.575Z,2.38
2023-01-30T10:57:13.509Z,1.90
2023-01-30T11:00:07.773Z,3.13
2023-01-30T11:02:54.034Z,1.95
2023-01-30T11:05:26.582Z,1.95
2023-01-30T11:07:53.395Z,2.42
2023-01-30T11:10:23.557Z,1.88
2023-01-30T11:12:57.394Z,1.83
2023-01-30T11:15:27.219Z,1.65
2023-01-30T11:18:33.231Z,3.20
2023-01-30T11:21:08.914Z,2.17
2023-01-30T11:23:45.036Z,2.20
2023-01-30T11:26:46.415Z,2.20
2023-01-30T11:29:28.478Z,2.20
2023-01-30T11:31:55.460Z,1.73
2023-01-30T11:34:24.206Z,2.38
2023-01-30T11:36:51.291Z,2.55
2023-01-30T11:39:18.789Z,3.05
2023-01-30T11:41:54.145Z,2.15
2023-01-30T11:44:27.309Z,2.10
2023-01-30T11:46:54.443Z,3.17
2023-01-30T11:49:48.166Z,2.25
2023-01-30T11:52:09.079Z,2.08
2023-01-30T11:54:39.192Z,2.72
2023-01-30T11:57:11.827Z,2.13
2023-01-30T11:59:47.183Z,2.20
2023-01-30T12:02:26.888Z,1.80
2023-01-30T12:05:03.607Z,1.30
2023-01-30T12:07:32.866Z,1.67
2023-01-30T12:10:02.583Z,1.50
2023-01-30T12:12:34.892Z,1.48
2023-01-30T12:15:16.716Z,1.52
2023-01-30T12:18:12.563Z,1.20
2023-01-30T12:20:45.113Z,1.77
2023-01-30T12:23:16.622Z,1.55
2023-01-30T12:25:59.279Z,1.83
2023-01-30T12:28:41.954Z,2.22
2023-01-30T12:31:23.264Z,2.30
2023-01-30T12:33:50.155Z,2.60
2023-01-30T12:36:25.653Z,2.25
2023-01-30T12:39:14.891Z,2.28
2023-01-30T12:41:48.622Z,2.13
2023-01-30T12:44:34.161Z,2.67
2023-01-30T12:47:19.358Z,2.10
2023-01-30T12:49:46.282Z,1.92
2023-01-30T12:52:13.039Z,1.55
2023-01-30T12:55:02.925Z,2.33
2023-01-30T12:57:37.921Z,2.05
2023-01-30T13:00:32.812Z,1.75
2023-01-30T13:03:10.305Z,1.60
2023-01-30T13:06:30.337Z,1.65
2023-01-30T13:09:17.970Z,1.98
2023-01-30T13:11:50.787Z,1.50
2023-01-30T13:14:25.435Z,1.60
2023-01-30T13:17:30.999Z,1.23
2023-01-30T13:20:12.881Z,2.63
2023-01-30T13:22:43.147Z,2.53
2023-01-30T13:25:39.258Z,1.63
2023-01-30T13:28:16.706Z,1.48
2023-01-30T13:30:44.999Z,1.42
2023-01-30T13:33:21.442Z,2.20
2023-01-30T13:35:53.018Z,2.30
2023-01-30T13:38:26.310Z,1.35
2023-01-30T13:40:56.854Z,2.00
2023-01-30T13:43:37.197Z,2.13
2023-01-30T13:46:08.390Z,1.92
2023-01-30T13:48:43.891Z,1.90
2023-01-30T13:51:33.671Z,1.85
2023-01-30T13:54:18.731Z,1.33
2023-01-30T13:56:59.228Z,1.73
2023-01-30T13:59:59.913Z,2.03
2023-01-30T14:02:27.088Z,2.03
2023-01-30T14:04:54.961Z,2.00
2023-01-30T14:07:23.638Z,1.50
2023-01-30T14:10:02.269Z,1.75
2023-01-30T14:12:34.889Z,1.98
2023-01-30T14:15:07.596Z,1.33
2023-01-30T14:17:36.589Z,1.48
2023-01-30T14:20:17.877Z,1.20
2023-01-30T14:22:55.189Z,1.40
2023-01-30T14:25:33.280Z,1.30
2023-01-30T14:28:00.134Z,0.90
2023-01-30T14:30:39.817Z,0.88
2023-01-30T14:33:33.550Z,0.50
2023-01-30T14:36:03.057Z,0.50
2023-01-30T14:38:34.282Z,0.40
2023-01-30T14:41:00.935Z,0.40
2023-01-30T14:43:43.893Z,0.40
2023-01-30T14:46:22.808Z,0.50
2023-01-30T14:49:01.085Z,0.40
2023-01-30T14:51:39.998Z,2.15
2023-01-30T14:54:13.557Z,0.52
2023-01-30T14:57:01.174Z,0.68
2023-01-30T15:00:14.993Z,0.98
2023-01-30T15:02:44.735Z,0.65
2023-01-30T15:05:15.213Z,1.20
2023-01-30T15:07:52.676Z,0.82
2023-01-30T15:10:25.869Z,0.70
2023-01-30T15:13:15.078Z,0.93
2023-01-30T15:16:16.608Z,0.88
2023-01-30T15:19:04.378Z,0.80
2023-01-30T15:21:51.458Z,1.45
2023-01-30T15:24:23.350Z,0.95
2023-01-30T15:27:43.978Z,1.58
2023-01-30T15:30:30.990Z,0.70
2023-01-30T15:33:26.408Z,0.70
2023-01-30T15:35:57.821Z,1.33
2023-01-30T15:38:27.356Z,0.77
2023-01-30T15:40:56.050Z,1.40
2023-01-30T15:44:00.391Z,1.92
2023-01-30T15:46:46.305Z,1.17
2023-01-30T15:49:34.903Z,1.00
2023-01-30T15:52:03.670Z,1.00
2023-01-30T15:54:30.636Z,0.80
2023-01-30T15:56:59.225Z,1.10
2023-01-30T15:59:38.276Z,1.42
2023-01-30T16:02:14.649Z,0.88
2023-01-30T16:04:41.489Z,1.30
2023-01-30T16:07:22.310Z,1.20
2023-01-30T16:10:06.924Z,1.20
2023-01-30T16:12:36.672Z,1.20
2023-01-30T16:18:05.559Z,1.38
2023-01-30T16:20:58.908Z,1.40
2023-01-30T16:24:07.058Z,2.22
2023-01-30T16:26:35.469Z,1.70
2023-01-30T16:29:12.031Z,1.75
2023-01-30T16:31:40.062Z,1.20
2023-01-30T16:34:22.851Z,1.60
2023-01-30T16:36:49.688Z,2.10
2023-01-30T16:39:42.838Z,1.45
2023-01-30T16:42:28.048Z,1.70
2023-01-30T16:45:24.046Z,1.95
2023-01-30T16:47:50.684Z,1.67
2023-01-30T16:50:22.612Z,2.40
2023-01-30T16:52:55.118Z,1.80
2023-01-30T16:55:26.491Z,1.70
2023-01-30T16:57:55.633Z,3.08
2023-01-30T17:00:26.338Z,1.95
2023-01-30T17:02:58.736Z,1.70
2023-01-30T17:05:30.140Z,2.15
2023-01-30T17:07:57.571Z,2.20
2023-01-30T17:10:30.289Z,1.98
2023-01-30T17:12:59.059Z,1.90
2023-01-30T17:15:27.129Z,1.95
2023-01-30T17:17:53.946Z,2.67
2023-01-30T17:20:20.853Z,2.08
2023-01-30T17:22:50.361Z,1.88
2023-01-30T17:25:47.620Z,1.65
2023-01-30T17:28:21.544Z,2.30
2023-01-30T17:30:50.133Z,1.65
2023-01-30T17:33:16.965Z,1.90
2023-01-30T17:35:44.697Z,1.50
2023-01-30T17:38:20.335Z,1.80
2023-01-30T17:40:47.234Z,1.90
2023-01-30T17:43:14.101Z,1.90
2023-01-30T17:45:40.911Z,2.20
2023-01-30T17:48:07.788Z,2.10
2023-01-30T17:50:36.627Z,2.00
2023-01-30T17:53:04.106Z,1.67
2023-01-30T17:55:30.903Z,1.98
2023-01-30T17:58:00.136Z,3.15
2023-01-30T18:00:27.093Z,2.13
2023-01-30T18:02:56.544Z,2.15
2023-01-30T18:05:23.355Z,2.40
2023-01-30T18:07:50.079Z,2.67
2023-01-30T18:10:19.986Z,2.70
2023-01-30T18:12:47.075Z,2.65
2023-01-30T18:15:16.144Z,2.63
2023-01-30T18:17:47.144Z,2.55
2023-01-30T18:20:16.096Z,2.65
2023-01-30T18:22:45.501Z,2.58
2023-01-30T18:25:15.437Z,2.92
2023-01-30T18:27:44.329Z,2.42
2023-01-30T18:30:17.264Z,3.95
2023-01-30T18:32:52.490Z,3.17
2023-01-30T18:35:19.949Z,3.20
2023-01-30T18:37:46.760Z,3.38
2023-01-30T18:40:16.121Z,2.90
2023-01-30T18:42:42.799Z,2.75
2023-01-30T18:45:09.924Z,2.85
2023-01-30T18:47:36.678Z,2.63
2023-01-30T18:50:04.697Z,2.92
2023-01-30T18:52:31.592Z,2.78
2023-01-30T18:54:58.935Z,3.92
2023-01-30T18:57:25.691Z,3.50
2023-01-30T18:59:54.825Z,2.90
2023-01-30T19:02:21.632Z,3.50
2023-01-30T19:04:48.652Z,2.97
2023-01-30T19:07:15.619Z,3.90
2023-01-30T19:09:43.389Z,3.42
2023-01-30T19:12:28.831Z,2.97
2023-01-30T19:14:56.046Z,3.40
2023-01-30T19:17:22.857Z,2.88
2023-01-30T19:19:50.484Z,2.42
2023-01-30T19:22:18.161Z,2.55
2023-01-30T19:24:45.078Z,2.83
2023-01-30T19:27:14.087Z,3.97
2023-01-30T19:29:42.032Z,2.92
2023-01-30T19:32:09.653Z,2.75
2023-01-30T19:34:40.336Z,3.78
2023-01-30T19:37:07.657Z,3.65
2023-01-30T19:39:34.467Z,3.00
2023-01-30T19:42:01.349Z,2.88
2023-01-30T19:44:28.288Z,4.03
2023-01-30T19:46:55.946Z,2.83
2023-01-30T19:49:22.849Z,3.70
2023-01-30T19:51:49.569Z,3.78
2023-01-30T19:54:18.965Z,2.55
2023-01-30T19:56:48.453Z,2.85
2023-01-30T19:59:16.698Z,3.35
2023-01-30T20:01:46.406Z,3.90
2023-01-30T20:04:13.328Z,2.88
2023-01-30T20:06:43.396Z,3.08
2023-01-30T20:09:11.443Z,4.38
2023-01-30T20:11:42.099Z,3.42
2023-01-30T20:14:10.468Z,3.50
2023-01-30T20:16:37.755Z,3.22
2023-01-30T20:19:11.679Z,2.72
2023-01-30T20:21:38.460Z,2.55
2023-01-30T20:24:05.969Z,3.30
2023-01-30T20:26:39.615Z,2.55
2023-01-30T20:29:11.602Z,3.63
2023-01-30T20:31:41.389Z,2.47
2023-01-30T20:34:12.139Z,2.67
2023-01-30T20:36:39.227Z,2.50
2023-01-30T20:39:07.778Z,3.00
2023-01-30T20:41:37.426Z,2.90
2023-01-30T20:44:06.078Z,2.72
2023-01-30T20:46:43.755Z,2.85
2023-01-30T20:49:21.400Z,2.20
2023-01-30T20:51:50.497Z,2.28
2023-01-30T20:54:21.429Z,2.78
2023-01-30T20:56:50.811Z,2.15
2023-01-30T20:59:20.384Z,2.15
2023-01-30T21:01:47.252Z,2.83
2023-01-30T21:04:18.171Z,2.65
2023-01-30T21:06:53.700Z,2.42
2023-01-30T21:09:22.751Z,3.58
2023-01-30T21:11:55.323Z,2.05
2023-01-30T21:14:26.664Z,2.15
2023-01-30T21:16:53.568Z,2.78
2023-01-30T21:19:20.286Z,3.15
2023-01-30T21:21:53.633Z,1.98
2023-01-30T21:24:23.999Z,2.35
2023-01-30T21:26:51.273Z,1.55
2023-01-30T21:29:23.615Z,1.80
2023-01-30T21:31:51.121Z,2.25
2023-01-30T21:34:18.099Z,2.50
2023-01-30T21:37:04.764Z,2.72
2023-01-30T21:39:50.427Z,2.08
2023-01-30T21:42:35.831Z,2.33
2023-01-30T21:45:02.755Z,2.85
2023-01-30T21:47:30.778Z,1.80
2023-01-30T21:50:02.147Z,1.55
2023-01-30T21:52:28.938Z,2.47
2023-01-30T21:54:57.133Z,1.40
2023-01-30T21:57:23.979Z,2.13
2023-01-30T21:59:50.782Z,2.15
2023-01-30T22:02:17.651Z,2.00
2023-01-30T22:04:44.578Z,2.00
2023-01-30T22:07:11.279Z,1.95
2023-01-30T22:09:40.924Z,2.17
2023-01-30T22:12:10.022Z,2.22
2023-01-30T22:14:36.729Z,2.17
2023-01-30T22:17:03.617Z,2.17
2023-01-30T22:19:35.994Z,2.28
2023-01-30T22:22:04.689Z,3.30
2023-01-30T22:24:31.514Z,2.25
2023-01-30T22:26:58.730Z,1.90
2023-01-30T22:29:25.325Z,2.15
2023-01-30T22:31:52.165Z,2.47
2023-01-30T22:34:19.116Z,2.55
2023-01-30T22:36:45.890Z,1.80
2023-01-30T22:39:12.837Z,2.45
2023-01-30T22:41:39.911Z,2.70
2023-01-30T22:44:09.559Z,2.00
2023-01-30T22:46:37.831Z,2.22
2023-01-30T22:49:06.840Z,1.95
2023-01-30T22:51:36.091Z,1.80
2023-01-30T22:54:05.637Z,2.45
2023-01-30T22:56:38.481Z,2.45
2023-01-30T22:59:06.169Z,3.17
2023-01-30T23:01:35.940Z,2.17
2023-01-30T23:04:06.174Z,2.10
2023-01-30T23:06:36.994Z,2.17
2023-01-30T23:09:05.504Z,2.83
2023-01-30T23:11:38.111Z,2.33
2023-01-30T23:14:10.587Z,2.83
2023-01-30T23:16:39.271Z,2.28
2023-01-30T23:19:08.436Z,2.13
2023-01-30T23:21:37.925Z,2.40
2023-01-30T23:24:07.883Z,2.67
2023-01-30T23:26:40.294Z,2.75
2023-01-30T23:29:13.438Z,3.10
2023-01-30T23:31:41.346Z,2.17
2023-01-30T23:34:14.143Z,2.60
2023-01-30T23:36:40.911Z,2.33
2023-01-30T23:39:08.493Z,2.95
2023-01-30T23:41:36.687Z,2.92
2023-01-30T23:44:03.926Z,2.78
2023-01-30T23:46:35.686Z,2.38
2023-01-30T23:49:10.863Z,2.58
2023-01-30T23:51:38.988Z,2.17
2023-01-30T23:54:06.467Z,2.50
2023-01-30T23:56:36.343Z,2.13
2023-01-30T23:59:03.769Z,2.22
